Thursday, December 18, 2014, 7:25 AM EST

KTHV, York Airport

Location: Spring Grove, PA, United States Lat: 39.917
Local Time: 7:25 AM EST (12:25 GMT) Lon: -76.883
Time Zone: US/Eastern Elev: 478 ft

Show me the last for .
Show Decoded

2014-12-18 05:53 METAR KTHV 181053Z AUTO 30010KT 10SM OVC039 01/M06 A3007 RMK AO2 SLP190
                 T00111061 =
2014-12-18 04:53 METAR KTHV 180953Z AUTO 31010KT 10SM OVC041 01/M06 A3006 RMK AO2 SLP184
                 T00111061 =
2014-12-18 03:53 METAR KTHV 180853Z AUTO 29010G19KT 10SM OVC044 02/M07 A3005 RMK AO2 SLP182 60000
                 T00171067 51006 =
2014-12-18 02:53 METAR KTHV 180753Z AUTO 30014G19KT 10SM OVC048 02/M06 A3005 RMK AO2 SLP182
                 T00171056 =
2014-12-18 01:53 METAR KTHV 180653Z AUTO 30012G18KT 10SM OVC045 02/M04 A3004 RMK AO2 SNB09E25
                 SLP179 P0000 T00171044 =
2014-12-18 00:53 METAR KTHV 180553Z AUTO 30012KT 10SM BKN039 OVC047 02/M05 A3003 RMK AO2 SLP176
                 T00221050 10039 20022 53003 =
2014-12-17 23:53 METAR KTHV 180453Z AUTO 29010G17KT 10SM OVC045 03/M05 A3002 RMK AO2 SLP171
                 T00281050 401110028 =
2014-12-17 22:53 METAR KTHV 180353Z AUTO 30010KT 10SM OVC042 03/M04 A3002 RMK AO2 SLP171
                 T00281044 =
2014-12-17 21:53 METAR KTHV 180253Z AUTO 29008KT 10SM OVC036 03/M04 A3002 RMK AO2 SLP172
                 T00331039 50004 =
2014-12-17 20:53 METAR KTHV 180153Z AUTO 30006KT 10SM OVC039 03/M04 A3003 RMK AO2 SLP173
                 T00331039 =
2014-12-17 19:53 METAR KTHV 180053Z AUTO 25005KT 10SM OVC043 03/M04 A3001 RMK AO2 SLP169
                 T00331044 =
2014-12-17 18:53 METAR KTHV 172353Z AUTO 27008KT 10SM OVC046 04/M04 A3001 RMK AO2 SLP168
                 T00391044 10094 20033 53012 =
2014-12-17 17:53 METAR KTHV 172253Z AUTO 28010KT 10SM BKN047 04/M04 A2999 RMK AO2 SLP161
                 T00441044 =
2014-12-17 16:53 METAR KTHV 172153Z AUTO 29011G19KT 10SM OVC048 06/M03 A2999 RMK AO2 SLP159
                 T00561028 =
2014-12-17 15:53 METAR KTHV 172053Z AUTO 29012G19KT 10SM OVC048 07/M03 A2998 RMK AO2 SLP155
                 T00721028 53013 =
2014-12-17 14:53 METAR KTHV 171953Z AUTO 30014G20KT 10SM BKN048 07/M02 A2996 RMK AO2 PK WND
                 30027/1925 SLP151 T00721017 =
2014-12-17 13:53 METAR KTHV 171853Z AUTO 29019G25KT 10SM SCT041 08/M01 A2994 RMK AO2 SLP144
                 T00831011 =
2014-12-17 12:53 METAR KTHV 171753Z AUTO 29013G21KT 10SM OVC042 09/01 A2994 RMK AO2 SLP141
                 T00890006 10111 20061 56007 =
2014-12-17 11:53 METAR KTHV 171653Z AUTO 29015G20KT 10SM OVC043 09/01 A2994 RMK AO2 SLP143
                 T00940006 =
2014-12-17 09:53 METAR KTHV 171453Z AUTO 28007KT 10SM BKN039 09/03 A2996 RMK AO2 SLP149 T00940033
                 53015 =
2014-12-17 08:53 METAR KTHV 171353Z AUTO 26006KT 10SM OVC038 08/03 A2994 RMK AO2 SLP144 T00830033
                 =
2014-12-17 07:53 METAR KTHV 171253Z AUTO 25005KT 10SM CLR 06/03 A2992 RMK AO2 SLP136 T00610028 =

Support USWX by starting your Amazon purchase here.